Time;durP1;ratioP1;P1;durP2;ratioP2;P2;SDS_P1;SDS_P2;PMS_P1;PMS_P2;Temp;Humidity;BMP_temperature;BMP_pressure;BME280_temperature;BME280_humidity;BME280_pressure;Samples;Min_cycle;Max_cycle;Signal;HPM_P1;HPM_P2
2022/01/31 00:00:46;;;;;;;24.30;7.60;;;;;;;2.69;62.64;99989.89;110117;1257;23688;-77
2022/01/31 00:03:19;;;;;;;28.90;7.70;;;;;;;2.69;62.67;99983.77;110190;1259;22140;-77
2022/01/31 00:05:49;;;;;;;;;;;;;;;2.70;62.77;99982.15;110190;1257;21970;-77
2022/01/31 00:08:25;;;;;;;28.40;7.90;;;;;;;2.63;62.75;99979.77;110208;1259;23043;-78
2022/01/31 00:11:01;;;;;;;22.40;6.50;;;;;;;2.60;62.85;99977.04;110136;1257;22039;-77
2022/01/31 00:13:43;;;;;;;22.80;6.10;;;;;;;2.57;62.83;99965.79;110056;1257;21969;-78
2022/01/31 00:16:31;;;;;;;21.90;7.10;;;;;;;2.54;62.97;99960.48;110434;1256;23603;-77
2022/01/31 00:19:02;;;;;;;24.30;6.90;;;;;;;2.55;63.00;99969.82;110573;1251;22986;-76
2022/01/31 00:21:32;;;;;;;19.50;6.40;;;;;;;2.57;63.04;99972.92;110708;1251;23645;-76
2022/01/31 00:24:27;;;;;;;20.20;6.50;;;;;;;2.58;62.93;99973.19;110662;1251;24417;-76
2022/01/31 00:27:01;;;;;;;24.70;7.60;;;;;;;2.59;62.94;99971.23;110844;1251;21965;-75
2022/01/31 00:29:31;;;;;;;20.40;6.60;;;;;;;2.57;62.91;99972.05;110649;1251;21972;-76
2022/01/31 00:32:18;;;;;;;18.70;7.40;;;;;;;2.56;62.98;99970.24;110854;1251;23072;-76
2022/01/31 00:34:57;;;;;;;23.00;5.70;;;;;;;2.53;63.10;99974.17;110916;1250;22401;-80
2022/01/31 00:37:37;;;;;;;24.60;6.90;;;;;;;2.52;63.28;99976.30;110710;1253;21969;-76
2022/01/31 00:40:11;;;;;;;25.00;7.40;;;;;;;2.49;63.19;99969.60;110475;1250;21972;-77
2022/01/31 00:42:44;;;;;;;29.30;7.40;;;;;;;2.41;63.13;99969.38;110840;1251;22530;-76
2022/01/31 00:45:29;;;;;;;24.50;6.70;;;;;;;2.35;63.16;99965.69;110840;1251;22570;-77
2022/01/31 00:48:14;;;;;;;24.20;6.40;;;;;;;2.31;63.26;99964.61;110463;1254;23685;-76
2022/01/31 00:51:04;;;;;;;23.20;6.60;;;;;;;2.29;63.29;99965.13;109460;1260;21984;-77
2022/01/31 00:53:41;;;;;;;21.10;5.90;;;;;;;2.28;63.37;99967.83;109976;1262;23725;-77
2022/01/31 00:56:14;;;;;;;23.50;7.80;;;;;;;2.28;63.49;99958.09;109652;1261;22035;-76
2022/01/31 00:58:50;;;;;;;22.10;7.30;;;;;;;2.26;63.48;99959.11;109630;1262;21999;-77
2022/01/31 01:01:31;;;;;;;;;;;;;;;;;;;;;
2022/01/31 01:04:12;;;;;;;19.80;5.80;;;;;;;2.19;63.56;99951.91;109463;1260;23675;-77
2022/01/31 01:06:52;;;;;;;25.40;7.20;;;;;;;2.13;63.61;99956.16;110081;1257;23053;-76
2022/01/31 01:09:26;;;;;;;24.70;6.70;;;;;;;2.08;63.58;99952.94;110578;1252;21973;-76
2022/01/31 01:12:00;;;;;;;18.10;5.80;;;;;;;2.03;63.66;99949.20;110710;1251;23055;-76
2022/01/31 01:14:59;;;;;;;;;;;;;;;;;;;;;
2022/01/31 01:17:28;;;;;;;19.20;5.50;;;;;;;1.94;63.67;99929.23;110634;1252;23106;-76
2022/01/31 01:20:03;;;;;;;20.50;5.40;;;;;;;1.92;63.77;99924.05;110733;1251;23020;-76
2022/01/31 01:22:33;;;;;;;16.30;5.10;;;;;;;1.88;63.83;99916.00;110489;1253;22153;-77
2022/01/31 01:25:12;;;;;;;21.10;6.40;;;;;;;1.84;63.88;99906.22;110511;1254;24058;-75
2022/01/31 01:27:45;;;;;;;21.10;6.40;;;;;;;1.79;63.87;99900.37;110714;1251;21975;-77
2022/01/31 01:30:24;;;;;;;26.80;7.10;;;;;;;1.71;63.85;99899.15;110598;1251;23059;-76
2022/01/31 01:33:07;;;;;;;25.70;6.70;;;;;;;1.62;64.01;99891.09;110810;1252;23132;-75
2022/01/31 01:35:39;;;;;;;25.70;6.80;;;;;;;1.56;64.12;99885.35;110265;1258;22101;-75
2022/01/31 01:38:12;;;;;;;25.60;7.10;;;;;;;1.50;64.25;99883.74;109978;1260;21981;-76
2022/01/31 01:40:44;;;;;;;25.70;6.60;;;;;;;1.46;64.34;99883.25;110168;1260;23121;-76
2022/01/31 01:43:22;;;;;;;23.50;6.00;;;;;;;1.44;64.42;99878.20;110042;1260;21972;-76
2022/01/31 01:45:54;;;;;;;21.10;6.50;;;;;;;1.42;64.56;99874.33;110313;1257;23052;-76
2022/01/31 01:48:30;;;;;;;26.70;8.00;;;;;;;1.39;64.62;99874.41;109585;1264;21981;-75
2022/01/31 01:51:06;;;;;;;20.60;6.40;;;;;;;1.36;64.73;99873.92;109437;1266;23106;-75
2022/01/31 01:53:50;;;;;;;24.10;7.40;;;;;;;1.34;64.82;99866.98;109952;1257;21971;-75
2022/01/31 01:56:21;;;;;;;22.80;6.80;;;;;;;1.30;64.86;99865.79;110473;1254;24369;-76
2022/01/31 01:58:56;;;;;;;27.90;7.30;;;;;;;1.25;65.02;99865.08;110358;1256;22423;-76
2022/01/31 02:01:31;;;;;;;23.10;6.90;;;;;;;1.21;65.15;99869.88;110173;1257;21963;-76
2022/01/31 02:04:08;;;;;;;16.50;6.90;;;;;;;1.17;65.23;99863.45;110405;1256;22039;-76
2022/01/31 02:06:50;;;;;;;23.00;7.00;;;;;;;1.15;65.31;99864.64;110247;1257;22004;-77
2022/01/31 02:09:26;;;;;;;27.60;7.10;;;;;;;1.15;65.38;99861.73;110367;1257;21972;-76
2022/01/31 02:12:00;;;;;;;24.60;7.00;;;;;;;1.14;65.40;99861.94;109728;1260;22095;-76
2022/01/31 02:14:36;;;;;;;19.70;6.80;;;;;;;1.14;65.48;99865.60;109950;1261;22034;-77
2022/01/31 02:17:31;;;;;;;21.40;5.60;;;;;;;1.14;65.59;99863.71;109240;1265;22035;-76
2022/01/31 02:20:12;;;;;;;26.20;6.20;;;;;;;1.15;65.60;99859.95;109205;1267;22091;-76
2022/01/31 02:22:46;;;;;;;21.60;5.90;;;;;;;1.14;65.71;99860.90;109137;1267;22469;-78
2022/01/31 02:25:34;;;;;;;28.00;8.30;;;;;;;1.11;65.63;99863.20;109345;1265;22770;-75
2022/01/31 02:28:35;;;;;;;15.70;6.00;;;;;;;1.09;65.66;99853.31;109210;1265;23725;-76
2022/01/31 02:31:08;;;;;;;24.00;8.00;;;;;;;1.08;65.72;99852.39;109669;1257;23029;-76
2022/01/31 02:33:41;;;;;;;21.90;6.70;;;;;;;1.09;65.71;99850.54;110430;1257;21955;-77
2022/01/31 02:36:15;;;;;;;17.80;6.20;;;;;;;1.09;65.76;99847.44;110643;1251;22771;-76
2022/01/31 02:38:51;;;;;;;20.70;5.60;;;;;;;1.11;65.78;99842.63;110671;1251;23678;-76
2022/01/31 02:41:52;;;;;;;;;;;;;;;1.11;65.80;99840.33;110492;1254;22013;-76
2022/01/31 02:44:32;;;;;;;17.00;5.50;;;;;;;1.06;65.91;99841.59;110435;1257;21978;-76
2022/01/31 02:47:15;;;;;;;19.50;6.00;;;;;;;1.07;65.97;99834.42;110425;1257;21976;-76
2022/01/31 02:52:33;;;;;;;14.00;5.60;;;;;;;1.11;65.83;99827.02;110131;1260;21974;-76
2022/01/31 02:55:08;;;;;;;19.60;6.20;;;;;;;1.10;65.75;99825.02;109990;1260;22019;-76
2022/01/31 02:57:50;;;;;;;21.70;7.10;;;;;;;1.08;65.73;99815.64;110169;1260;21982;-78
2022/01/31 03:00:27;;;;;;;22.50;6.00;;;;;;;1.06;65.57;99815.10;110221;1257;21963;-77
2022/01/31 03:03:21;;;;;;;18.30;5.60;;;;;;;1.04;65.59;99806.70;109447;1262;23659;-76
2022/01/31 03:05:55;;;;;;;22.60;5.60;;;;;;;1.05;65.65;99803.86;109735;1260;23714;-76
2022/01/31 03:08:51;;;;;;;21.60;5.80;;;;;;;1.07;65.56;99800.25;109671;1263;23839;-76
2022/01/31 03:11:47;;;;;;;20.90;5.20;;;;;;;1.09;65.47;99800.77;110319;1257;22525;-76
2022/01/31 03:14:32;;;;;;;22.60;5.80;;;;;;;1.13;65.42;99799.29;110405;1257;22045;-75
2022/01/31 03:17:29;;;;;;;20.90;6.20;;;;;;;1.15;65.37;99797.70;110337;1257;22194;-76
2022/01/31 03:20:05;;;;;;;;;;;;;;;1.16;65.37;99792.98;110454;1256;21947;-76
2022/01/31 03:22:47;;;;;;;17.20;5.70;;;;;;;1.10;65.37;99791.89;110748;1250;22714;-76
2022/01/31 03:25:26;;;;;;;21.50;7.00;;;;;;;1.08;65.40;99791.91;110767;1251;23675;-76
2022/01/31 03:27:58;;;;;;;17.40;5.80;;;;;;;1.08;65.36;99787.36;110909;1250;23694;-77
2022/01/31 03:30:34;;;;;;;16.60;6.00;;;;;;;1.08;65.26;99787.20;110718;1250;23028;-78
2022/01/31 03:33:13;;;;;;;22.30;5.50;;;;;;;1.09;65.30;99785.88;110769;1251;21984;-77
2022/01/31 03:35:59;;;;;;;17.90;5.80;;;;;;;1.10;65.31;99782.31;110156;1258;23647;-76
2022/01/31 03:38:41;;;;;;;22.80;5.90;;;;;;;1.13;65.35;99780.36;110340;1257;22018;-76
2022/01/31 03:41:25;;;;;;;21.20;6.10;;;;;;;1.17;65.36;99777.30;110311;1257;21994;-77
2022/01/31 03:43:56;;;;;;;19.70;5.50;;;;;;;1.20;65.35;99777.00;110372;1257;21999;-75
2022/01/31 03:46:28;;;;;;;19.10;6.20;;;;;;;1.22;65.35;99770.30;110343;1257;23687;-76
2022/01/31 03:48:57;;;;;;;22.50;7.10;;;;;;;1.22;65.28;99763.33;109693;1260;22053;-76
2022/01/31 03:51:40;;;;;;;22.40;5.60;;;;;;;1.22;65.33;99757.98;109188;1267;23604;-75
2022/01/31 03:54:13;;;;;;;23.60;5.90;;;;;;;1.22;65.33;99751.40;109424;1263;22030;-75
2022/01/31 03:56:43;;;;;;;17.70;5.80;;;;;;;1.20;65.32;99747.39;109608;1262;21979;-76
2022/01/31 03:59:41;;;;;;;19.80;5.80;;;;;;;1.19;65.34;99744.89;109700;1262;21978;-76
2022/01/31 04:02:19;;;;;;;18.70;5.80;;;;;;;1.19;65.53;99739.61;109733;1260;23610;-76
2022/01/31 04:04:48;;;;;;;24.80;6.70;;;;;;;1.21;65.57;99736.39;109974;1260;23680;-77
2022/01/31 04:07:17;;;;;;;22.20;6.50;;;;;;;1.25;65.50;99735.37;109814;1257;150610;-76
2022/01/31 04:09:53;;;;;;;16.40;6.40;;;;;;;1.27;65.52;99736.00;110413;1254;22009;-78
2022/01/31 04:12:24;;;;;;;21.10;5.30;;;;;;;1.30;65.55;99732.66;110344;1256;21973;-77
2022/01/31 04:14:55;;;;;;;20.40;7.30;;;;;;;1.32;65.57;99726.77;110179;1257;21987;-77
2022/01/31 04:17:27;;;;;;;19.80;5.90;;;;;;;1.34;65.62;99727.00;110754;1251;22011;-76
2022/01/31 04:19:56;;;;;;;21.60;7.10;;;;;;;1.35;65.56;99723.45;110769;1251;21959;-78
2022/01/31 04:22:31;;;;;;;18.80;5.40;;;;;;;1.33;65.48;99722.17;110544;1251;22853;-79
2022/01/31 04:25:06;;;;;;;23.30;8.00;;;;;;;1.32;65.64;99718.63;111143;1251;22986;-77
2022/01/31 04:27:44;;;;;;;;;;;;;;;1.34;65.67;99710.98;110517;1257;21975;-78
2022/01/31 04:30:15;;;;;;;19.10;5.90;;;;;;;1.31;65.73;99709.71;110436;1257;21994;-78
2022/01/31 04:32:44;;;;;;;20.10;6.40;;;;;;;1.31;65.67;99705.52;109943;1260;22770;-77
2022/01/31 04:35:15;;;;;;;23.10;6.60;;;;;;;1.34;65.62;99698.13;109666;1261;22037;-78
2022/01/31 04:37:45;;;;;;;17.70;5.90;;;;;;;1.38;65.66;99692.95;109193;1265;23666;-78
2022/01/31 04:40:15;;;;;;;30.40;6.90;;;;;;;1.43;65.65;99690.39;109002;1267;22115;-78
2022/01/31 04:42:45;;;;;;;22.90;5.80;;;;;;;1.45;65.55;99685.19;109148;1267;24730;-78
2022/01/31 04:45:14;;;;;;;23.10;6.20;;;;;;;1.45;65.48;99675.45;109280;1262;22091;-77
2022/01/31 04:47:43;;;;;;;20.10;6.60;;;;;;;1.43;65.38;99666.75;109598;1260;21996;-78
2022/01/31 04:50:13;;;;;;;17.60;5.80;;;;;;;1.41;65.34;99661.52;110153;1257;23117;-78
2022/01/31 04:52:42;;;;;;;26.70;6.90;;;;;;;1.38;65.27;99657.40;110242;1257;23738;-78
2022/01/31 04:55:14;;;;;;;21.80;6.20;;;;;;;1.37;65.42;99658.70;110359;1257;22031;-77
2022/01/31 04:57:46;;;;;;;21.60;5.90;;;;;;;1.39;65.36;99657.70;110395;1257;21987;-78
2022/01/31 05:00:16;;;;;;;25.70;7.60;;;;;;;1.40;65.24;99650.81;110377;1257;21968;-78
2022/01/31 05:02:45;;;;;;;19.10;7.50;;;;;;;1.42;65.18;99648.75;110225;1257;22225;-77
2022/01/31 05:05:14;;;;;;;20.90;6.50;;;;;;;1.45;65.13;99646.84;110142;1258;22193;-77
2022/01/31 05:07:55;;;;;;;22.90;5.90;;;;;;;1.47;65.15;99642.17;110227;1254;21956;-77
2022/01/31 05:10:26;;;;;;;18.20;6.00;;;;;;;1.48;65.17;99638.94;110194;1254;23681;-78
2022/01/31 05:12:55;;;;;;;21.50;6.70;;;;;;;1.47;65.09;99636.91;110419;1255;22739;-78
2022/01/31 05:15:24;;;;;;;25.90;6.90;;;;;;;1.44;64.93;99637.30;110366;1257;21969;-78
2022/01/31 05:17:53;;;;;;;25.10;7.40;;;;;;;1.41;64.91;99639.31;110298;1257;21977;-78
2022/01/31 05:20:22;;;;;;;23.80;7.50;;;;;;;1.39;64.96;99635.11;110539;1251;23580;-78
2022/01/31 05:22:55;;;;;;;22.50;7.60;;;;;;;1.40;64.93;99636.62;110910;1250;23578;-78
2022/01/31 05:25:25;;;;;;;24.60;8.60;;;;;;;1.41;64.89;99635.86;110812;1250;22066;-78
2022/01/31 05:27:55;;;;;;;18.50;7.40;;;;;;;1.42;64.91;99630.94;110441;1257;22740;-78
2022/01/31 05:30:29;;;;;;;29.10;8.70;;;;;;;1.43;64.90;99633.95;110163;1260;21981;-78
2022/01/31 05:32:58;;;;;;;30.70;9.10;;;;;;;1.44;64.84;99631.30;109963;1260;21967;-78
2022/01/31 05:35:31;;;;;;;27.80;9.20;;;;;;;1.44;64.81;99633.73;109995;1260;21983;-78
2022/01/31 05:38:03;;;;;;;24.60;9.70;;;;;;;1.43;64.92;99630.13;109976;1260;23684;-78
2022/01/31 05:40:35;;;;;;;23.40;9.40;;;;;;;1.41;64.95;99629.92;110010;1260;23081;-79
2022/01/31 05:43:05;;;;;;;24.50;10.60;;;;;;;1.40;64.99;99625.67;109535;1266;21977;-77
2022/01/31 05:45:34;;;;;;;27.80;10.90;;;;;;;1.41;65.07;99621.10;109389;1263;22014;-77
2022/01/31 05:48:04;;;;;;;30.10;10.70;;;;;;;1.43;65.05;99618.17;109874;1260;23061;-78
2022/01/31 05:50:33;;;;;;;25.10;8.60;;;;;;;1.46;65.01;99616.73;109532;1260;23625;-77
2022/01/31 05:53:05;;;;;;;26.60;11.20;;;;;;;1.48;65.01;99615.33;109855;1261;23591;-77
2022/01/31 05:55:40;;;;;;;32.30;11.20;;;;;;;1.49;65.03;99614.52;109951;1260;21991;-77
2022/01/31 05:58:09;;;;;;;27.80;10.30;;;;;;;1.51;64.99;99608.66;109924;1263;21969;-77
2022/01/31 06:00:40;;;;;;;31.70;10.40;;;;;;;1.50;65.02;99603.52;109831;1254;21972;-77
2022/01/31 06:03:09;;;;;;;29.20;11.10;;;;;;;1.49;65.00;99602.71;109974;1260;24276;-78
2022/01/31 06:05:38;;;;;;;30.40;11.90;;;;;;;1.48;65.03;99597.47;110032;1257;21970;-78
2022/01/31 06:08:11;;;;;;;36.00;12.80;;;;;;;1.48;65.11;99590.02;109557;1261;23049;-78
2022/01/31 06:10:45;;;;;;;32.80;11.40;;;;;;;1.48;65.13;99583.73;109881;1261;21976;-78
2022/01/31 06:13:24;;;;;;;37.00;10.60;;;;;;;1.49;65.17;99583.48;110186;1259;23133;-77
2022/01/31 06:16:07;;;;;;;;;;;;;;;;;;;;;
2022/01/31 06:19:02;;;;;;;;;;;;;;;;;;;;;
2022/01/31 06:21:38;;;;;;;25.40;9.00;;;;;;;1.55;65.26;99562.33;109264;1263;21979;-77
2022/01/31 06:24:13;;;;;;;24.20;8.40;;;;;;;1.57;65.36;99562.16;109214;1264;22873;-77
2022/01/31 06:26:45;;;;;;;32.10;11.50;;;;;;;1.59;65.46;99558.16;109629;1260;23703;-77
2022/01/31 06:29:36;;;;;;;34.60;11.50;;;;;;;1.59;65.37;99557.77;109487;1263;22808;-77
2022/01/31 06:32:19;;;;;;;34.70;11.90;;;;;;;1.58;65.46;99555.81;109241;1264;21976;-77
2022/01/31 06:34:48;;;;;;;34.00;12.10;;;;;;;1.57;65.50;99556.23;108864;1270;22073;-78
2022/01/31 06:37:18;;;;;;;31.70;11.10;;;;;;;1.56;65.60;99554.27;108680;1273;23061;-77
2022/01/31 06:39:53;;;;;;;35.40;13.20;;;;;;;1.55;65.66;99556.59;108893;1267;22075;-78
2022/01/31 06:42:23;;;;;;;35.00;13.70;;;;;;;1.55;65.80;99552.95;109231;1263;22852;-78
2022/01/31 06:45:00;;;;;;;36.30;12.60;;;;;;;1.56;65.86;99553.38;108961;1266;21994;-76
2022/01/31 06:47:29;;;;;;;38.20;14.40;;;;;;;1.59;65.90;99552.45;109655;1260;21983;-76
2022/01/31 06:49:59;;;;;;;29.80;12.40;;;;;;;1.62;66.01;99547.43;109673;1259;21965;-78
2022/01/31 06:52:32;;;;;;;28.60;11.60;;;;;;;1.68;66.06;99543.39;109938;1260;21978;-78
2022/01/31 06:55:06;;;;;;;34.40;13.60;;;;;;;1.71;66.08;99542.59;110376;1251;22908;-76
2022/01/31 06:57:38;;;;;;;;;;;;;;;1.74;66.10;99537.86;110503;1253;21962;-76
2022/01/31 07:00:08;;;;;;;36.10;14.30;;;;;;;1.70;66.29;99532.41;110681;1253;22026;-78
2022/01/31 07:02:38;;;;;;;28.30;14.20;;;;;;;1.70;66.35;99527.74;110685;1251;24283;-79
2022/01/31 07:05:16;;;;;;;28.20;13.10;;;;;;;1.71;66.34;99525.91;110448;1254;23647;-78
2022/01/31 07:07:49;;;;;;;36.20;13.50;;;;;;;1.72;66.53;99521.98;109435;1263;23723;-78
2022/01/31 07:10:18;;;;;;;32.70;13.40;;;;;;;1.74;66.66;99519.95;109851;1262;23628;-77
2022/01/31 07:12:51;;;;;;;30.60;12.60;;;;;;;1.77;66.66;99519.61;109588;1262;23554;-78
2022/01/31 07:15:27;;;;;;;29.00;11.00;;;;;;;1.81;66.62;99517.73;109593;1262;23710;-78
2022/01/31 07:17:56;;;;;;;30.90;12.20;;;;;;;1.86;66.66;99513.49;109620;1260;22291;-78
2022/01/31 07:20:41;;;;;;;31.50;13.10;;;;;;;1.91;66.73;99511.14;109533;1260;23117;-77
2022/01/31 07:23:18;;;;;;;38.60;16.00;;;;;;;1.95;66.62;99513.80;109747;1260;23281;-78
2022/01/31 07:25:49;;;;;;;31.80;13.40;;;;;;;1.99;66.78;99514.65;110178;1251;23675;-78
2022/01/31 07:28:28;;;;;;;41.10;16.70;;;;;;;2.03;66.75;99513.98;110143;1258;22036;-78
2022/01/31 07:31:18;;;;;;;37.40;17.30;;;;;;;2.03;66.73;99508.70;110288;1257;23707;-78
2022/01/31 07:33:48;;;;;;;46.20;22.30;;;;;;;2.04;66.64;99505.54;110256;1257;21983;-78
2022/01/31 07:36:25;;;;;;;47.30;22.00;;;;;;;2.04;66.71;99501.13;110206;1257;21966;-77
2022/01/31 07:38:55;;;;;;;45.50;21.20;;;;;;;2.06;66.64;99498.52;110175;1256;23595;-77
2022/01/31 07:41:24;;;;;;;42.80;23.20;;;;;;;2.08;66.70;99495.56;109944;1260;22209;-77
2022/01/31 07:43:59;;;;;;;44.90;20.30;;;;;;;2.12;66.82;99491.60;109875;1261;22036;-78
2022/01/31 07:46:34;;;;;;;51.90;25.30;;;;;;;2.16;66.87;99485.48;110125;1256;22000;-77
2022/01/31 07:49:06;;;;;;;55.50;31.70;;;;;;;2.22;66.92;99488.30;109994;1259;23628;-78
2022/01/31 07:51:38;;;;;;;40.30;21.00;;;;;;;2.28;66.93;99485.52;109885;1259;22020;-78
2022/01/31 07:54:12;;;;;;;46.10;21.70;;;;;;;2.32;66.90;99479.08;109956;1257;21976;-78
2022/01/31 07:56:59;;;;;;;46.50;24.80;;;;;;;2.35;66.85;99472.73;110187;1257;22045;-79
2022/01/31 07:59:48;;;;;;;46.60;21.90;;;;;;;2.37;66.89;99468.55;110155;1253;22147;-77
2022/01/31 08:02:20;;;;;;;42.90;19.30;;;;;;;2.41;67.10;99464.95;110199;1254;21956;-79
2022/01/31 08:04:54;;;;;;;48.00;23.70;;;;;;;2.42;66.98;99465.86;110165;1257;22759;-81
2022/01/31 08:07:24;;;;;;;37.10;18.50;;;;;;;2.42;66.93;99462.73;109727;1259;22035;-77
2022/01/31 08:09:56;;;;;;;;;;;;;;;2.41;66.91;99460.38;109917;1260;21955;-78
2022/01/31 08:12:28;;;;;;;44.80;21.80;;;;;;;2.38;67.01;99455.45;109875;1259;21987;-77
2022/01/31 08:15:14;;;;;;;50.80;25.00;;;;;;;2.40;67.00;99452.53;109624;1261;21964;-78
2022/01/31 08:17:45;;;;;;;41.00;22.20;;;;;;;2.47;67.05;99449.63;109967;1259;23831;-78
2022/01/31 08:20:17;;;;;;;41.10;21.70;;;;;;;2.52;67.00;99448.60;110127;1259;23071;-78
2022/01/31 08:22:46;;;;;;;53.10;26.00;;;;;;;2.57;67.05;99443.30;110066;1253;22938;-78
2022/01/31 08:25:16;;;;;;;44.20;21.20;;;;;;;2.67;67.13;99440.32;110444;1253;21965;-76
2022/01/31 08:27:48;;;;;;;54.20;22.20;;;;;;;2.74;66.95;99440.03;110327;1254;23051;-78
2022/01/31 08:30:25;;;;;;;49.40;24.50;;;;;;;2.78;66.85;99436.33;110762;1253;22539;-78
2022/01/31 08:33:00;;;;;;;43.00;21.60;;;;;;;2.81;66.63;99438.67;110824;1250;21975;-79
2022/01/31 08:35:50;;;;;;;50.10;24.60;;;;;;;2.82;66.77;99438.20;110978;1251;24290;-79
2022/01/31 08:38:20;;;;;;;46.30;21.30;;;;;;;2.86;66.71;99434.61;111017;1250;22023;-80
2022/01/31 08:40:51;;;;;;;41.10;20.10;;;;;;;2.88;66.49;99426.81;110756;1250;23699;-78
2022/01/31 08:43:22;;;;;;;42.40;21.00;;;;;;;2.90;66.41;99420.85;110719;1250;23651;-77
2022/01/31 08:45:55;;;;;;;52.20;21.90;;;;;;;2.92;66.31;99418.19;110719;1250;23696;-79
2022/01/31 08:48:30;;;;;;;48.10;23.30;;;;;;;2.97;66.40;99419.29;111090;1250;22023;-80
2022/01/31 08:51:00;;;;;;;45.90;20.00;;;;;;;3.03;66.36;99421.30;110754;1250;23651;-80
2022/01/31 08:53:36;;;;;;;40.10;19.20;;;;;;;3.12;66.37;99418.45;110875;1247;23065;-79
2022/01/31 08:56:12;;;;;;;41.50;20.40;;;;;;;3.17;66.23;99415.34;110799;1247;21977;-79
2022/01/31 08:58:48;;;;;;;50.00;21.40;;;;;;;3.20;66.15;99414.41;111098;1247;23715;-78
2022/01/31 09:01:22;;;;;;;41.70;19.60;;;;;;;3.21;66.14;99413.41;110883;1247;21958;-80
2022/01/31 09:04:01;;;;;;;43.00;20.50;;;;;;;3.21;66.08;99408.55;110335;1254;21991;-78
2022/01/31 09:06:36;;;;;;;47.20;20.90;;;;;;;3.21;65.97;99405.75;110480;1253;23673;-78
2022/01/31 09:09:08;;;;;;;45.70;22.10;;;;;;;3.24;65.99;99404.38;110502;1254;21976;-79
2022/01/31 09:11:40;;;;;;;45.50;20.40;;;;;;;3.29;65.91;99401.30;110563;1254;21987;-79
2022/01/31 09:14:12;;;;;;;48.60;20.10;;;;;;;3.33;65.86;99395.07;109975;1259;23684;-78
2022/01/31 09:16:43;;;;;;;;;;;;;;;3.40;65.88;99391.13;110049;1259;23821;-78
2022/01/31 09:19:15;;;;;;;45.70;18.50;;;;;;;3.38;65.76;99387.95;109857;1259;21975;-78
2022/01/31 09:21:46;;;;;;;44.60;19.70;;;;;;;3.39;65.64;99383.89;109982;1253;21969;-78
2022/01/31 09:24:20;;;;;;;41.10;19.60;;;;;;;3.41;65.64;99385.04;110485;1254;21966;-78
2022/01/31 09:26:49;;;;;;;39.40;18.40;;;;;;;3.44;65.54;99389.45;110509;1253;22366;-79
2022/01/31 09:29:19;;;;;;;38.70;16.40;;;;;;;3.44;65.39;99386.73;110491;1253;22029;-79
2022/01/31 09:31:50;;;;;;;;;;;;;;;3.45;65.30;99384.00;110810;1247;23800;-80
2022/01/31 09:34:23;;;;;;;40.00;15.70;;;;;;;3.40;65.30;99382.19;111032;1248;21957;-79
2022/01/31 09:36:53;;;;;;;36.30;16.60;;;;;;;3.45;65.48;99381.05;110322;1254;21965;-80
2022/01/31 09:39:27;;;;;;;39.90;17.10;;;;;;;3.51;65.35;99377.35;110483;1254;21972;-79
2022/01/31 09:42:12;;;;;;;43.40;18.40;;;;;;;3.53;65.12;99372.25;109988;1260;22118;-79
2022/01/31 09:47:21;;;;;;;47.10;18.70;;;;;;;3.64;65.09;99368.28;109679;1260;23619;-78
2022/01/31 09:49:53;;;;;;;43.10;18.30;;;;;;;3.64;64.87;99365.15;109623;1261;21999;-80
2022/01/31 09:52:24;;;;;;;41.00;19.60;;;;;;;3.65;64.96;99361.55;109726;1260;21981;-80
2022/01/31 09:54:53;;;;;;;42.90;18.90;;;;;;;3.69;65.15;99357.47;109492;1254;23440;-79
2022/01/31 09:57:23;;;;;;;44.80;21.60;;;;;;;3.73;64.92;99353.98;110658;1256;21974;-78
2022/01/31 09:59:52;;;;;;;50.50;21.10;;;;;;;3.72;64.68;99351.46;110415;1256;21983;-79
2022/01/31 10:02:24;;;;;;;45.60;19.70;;;;;;;3.73;64.74;99350.30;110504;1256;22078;-79
2022/01/31 10:04:53;;;;;;;47.00;20.00;;;;;;;3.76;64.63;99347.36;110320;1254;21939;-78
2022/01/31 10:07:46;;;;;;;43.20;19.90;;;;;;;3.76;64.40;99344.02;110729;1247;22435;-79
2022/01/31 10:10:23;;;;;;;38.50;17.50;;;;;;;3.77;64.24;99342.23;110798;1247;21982;-79
2022/01/31 10:18:20;;;;;;;39.40;16.20;;;;;;;3.72;64.12;99334.73;110449;1254;23036;-79
2022/01/31 10:21:09;;;;;;;45.00;18.50;;;;;;;3.66;64.10;99334.27;110436;1254;22391;-79
2022/01/31 10:23:41;;;;;;;39.80;18.10;;;;;;;3.61;64.23;99328.69;110716;1254;21985;-80
2022/01/31 10:26:39;;;;;;;39.50;16.50;;;;;;;3.54;64.11;99328.67;110719;1253;22762;-79
2022/01/31 10:29:28;;;;;;;38.10;16.50;;;;;;;3.48;64.26;99323.98;110570;1255;21980;-79
2022/01/31 10:32:09;;;;;;;46.30;18.40;;;;;;;3.44;64.47;99322.45;110159;1260;23831;-80
2022/01/31 10:34:51;;;;;;;36.80;15.40;;;;;;;3.44;64.60;99317.58;110560;1254;21992;-79
2022/01/31 10:37:23;;;;;;;35.90;18.40;;;;;;;3.46;64.48;99313.95;110402;1254;23041;-79
2022/01/31 10:46:07;;;;;;;44.80;17.70;;;;;;;3.50;64.78;99304.43;109816;1260;21978;-79
2022/01/31 10:57:15;;;;;;;43.90;19.20;;;;;;;3.42;65.01;99298.99;110424;1260;23654;-80
2022/01/31 10:59:50;;;;;;;47.70;18.00;;;;;;;3.45;65.09;99300.55;109587;1262;22205;-80
2022/01/31 11:02:25;;;;;;;42.60;20.10;;;;;;;3.47;65.11;99297.11;109373;1263;21976;-79
2022/01/31 11:04:55;;;;;;;37.10;18.20;;;;;;;3.49;65.12;99296.00;110080;1258;23055;-78
2022/01/31 11:07:29;;;;;;;46.10;21.60;;;;;;;3.49;65.01;99297.46;110010;1258;21948;-79
2022/01/31 11:10:06;;;;;;;37.10;17.40;;;;;;;3.49;65.10;99295.51;109870;1257;21975;-78
2022/01/31 11:12:36;;;;;;;42.50;18.40;;;;;;;3.48;64.96;99292.00;109344;1263;22034;-79
2022/01/31 11:15:13;;;;;;;46.10;19.80;;;;;;;3.43;64.97;99290.91;109515;1264;22281;-79
2022/01/31 11:17:56;;;;;;;47.90;21.20;;;;;;;3.40;65.13;99290.15;109982;1255;21987;-80
2022/01/31 11:20:25;;;;;;;49.80;20.10;;;;;;;3.32;65.12;99295.28;110735;1253;23716;-80
2022/01/31 11:22:58;;;;;;;46.00;21.50;;;;;;;3.26;65.39;99294.23;110398;1259;23150;-80
2022/01/31 11:25:31;;;;;;;49.60;20.30;;;;;;;3.25;65.58;99296.56;110111;1259;22440;-81
2022/01/31 11:28:04;;;;;;;42.60;19.10;;;;;;;3.23;65.52;99297.35;109743;1260;23619;-80
2022/01/31 11:30:34;;;;;;;40.60;19.60;;;;;;;3.17;65.64;99292.98;109289;1260;22760;-79
2022/01/31 11:33:05;;;;;;;39.20;16.70;;;;;;;3.16;65.90;99285.86;109468;1260;22048;-79
2022/01/31 11:35:38;;;;;;;40.40;19.90;;;;;;;3.17;66.21;99284.05;109859;1261;21975;-80
2022/01/31 11:38:08;;;;;;;40.40;18.10;;;;;;;3.18;66.39;99280.43;109319;1265;22121;-79
2022/01/31 11:40:38;;;;;;;40.40;20.10;;;;;;;3.16;66.50;99271.70;108829;1268;22023;-79
2022/01/31 11:43:11;;;;;;;48.00;21.30;;;;;;;3.14;66.68;99261.69;109077;1267;21996;-79
2022/01/31 11:45:42;;;;;;;49.30;20.90;;;;;;;3.16;67.06;99258.52;109170;1267;23540;-80
2022/01/31 11:48:24;;;;;;;43.80;21.50;;;;;;;3.18;67.28;99261.41;109268;1261;22756;-79
2022/01/31 11:50:59;;;;;;;48.20;23.00;;;;;;;3.23;67.70;99255.56;109322;1262;23439;-79
2022/01/31 11:53:35;;;;;;;41.80;20.10;;;;;;;3.27;67.74;99252.93;109150;1267;22005;-79
2022/01/31 11:56:22;;;;;;;45.70;22.40;;;;;;;3.28;67.78;99251.08;109398;1261;21975;-79
2022/01/31 11:58:55;;;;;;;43.30;20.60;;;;;;;3.31;67.99;99249.56;109664;1259;22356;-79
2022/01/31 12:01:28;;;;;;;37.70;19.40;;;;;;;3.35;68.06;99250.62;110166;1259;21993;-80
2022/01/31 12:04:00;;;;;;;43.40;23.20;;;;;;;3.34;68.11;99251.92;110075;1259;23736;-79
2022/01/31 12:06:37;;;;;;;57.70;28.00;;;;;;;3.35;68.19;99248.92;109496;1263;21991;-80
2022/01/31 12:09:23;;;;;;;43.20;23.70;;;;;;;3.34;68.33;99247.05;109323;1263;21991;-78
2022/01/31 12:12:06;;;;;;;44.70;19.80;;;;;;;3.34;68.46;99255.60;109632;1260;23090;-79
2022/01/31 12:14:54;;;;;;;45.50;22.60;;;;;;;3.31;68.33;99252.73;109999;1262;21995;-79
2022/01/31 12:24:22;;;;;;;40.60;21.10;;;;;;;3.15;68.55;99245.79;109736;1261;23808;-80
2022/01/31 12:26:55;;;;;;;40.40;18.20;;;;;;;3.12;68.70;99239.04;109977;1259;22907;-80
2022/01/31 12:29:30;;;;;;;43.10;21.40;;;;;;;3.12;68.82;99234.89;110226;1260;22001;-79
2022/01/31 12:32:34;;;;;;;47.70;24.50;;;;;;;3.14;69.03;99231.02;110056;1259;22574;-80
2022/01/31 12:35:13;;;;;;;43.20;18.70;;;;;;;3.14;69.01;99231.45;109825;1262;23614;-80
2022/01/31 12:37:53;;;;;;;42.40;21.40;;;;;;;3.12;69.11;99230.91;109609;1263;23040;-78
2022/01/31 12:40:32;;;;;;;39.60;19.50;;;;;;;3.11;69.15;99230.31;108877;1267;23142;-79